createdAt,value
2019-03-26T00:01:23.587Z,19.50
2019-03-26T00:04:05.351Z,19.60
2019-03-26T00:06:27.980Z,14.33
2019-03-26T00:08:59.260Z,19.75
2019-03-26T00:11:30.597Z,14.25
2019-03-26T00:14:01.872Z,19.73
2019-03-26T00:16:33.166Z,13.32
2019-03-26T00:19:04.409Z,18.57
2019-03-26T00:21:35.974Z,18.60
2019-03-26T00:24:07.324Z,19.82
2019-03-26T00:26:38.512Z,25.02
2019-03-26T00:29:09.787Z,13.90
2019-03-26T00:31:41.120Z,18.95
2019-03-26T00:34:19.146Z,23.62
2019-03-26T00:36:45.392Z,21.05
2019-03-26T00:39:16.678Z,17.92
2019-03-26T00:41:48.018Z,25.40
2019-03-26T00:44:19.352Z,15.83
2019-03-26T00:46:50.655Z,14.87
2019-03-26T00:49:21.946Z,15.00
2019-03-26T00:51:53.266Z,29.02
2019-03-26T00:54:24.443Z,16.62
2019-03-26T00:56:55.687Z,16.80
2019-03-26T00:59:27.084Z,11.67
2019-03-26T01:01:58.391Z,16.23
2019-03-26T01:04:33.032Z,23.22
2019-03-26T01:07:02.806Z,14.75
2019-03-26T01:09:34.084Z,15.23
2019-03-26T01:12:05.414Z,14.28
2019-03-26T01:14:36.686Z,13.40
2019-03-26T01:17:08.000Z,26.33
2019-03-26T01:19:39.273Z,20.57
2019-03-26T01:22:10.612Z,16.60
2019-03-26T01:24:41.906Z,22.80
2019-03-26T01:27:13.190Z,21.70
2019-03-26T01:29:44.448Z,12.80
2019-03-26T01:32:15.757Z,13.53
2019-03-26T01:34:46.989Z,21.00
2019-03-26T01:37:18.309Z,26.60
2019-03-26T01:39:49.554Z,16.15
2019-03-26T01:42:20.870Z,25.85
2019-03-26T01:44:52.198Z,19.55
2019-03-26T01:47:23.505Z,26.13
2019-03-26T01:49:54.781Z,23.05
2019-03-26T01:52:26.089Z,18.48
2019-03-26T01:54:57.450Z,20.85
2019-03-26T01:57:28.757Z,18.55
2019-03-26T02:00:00.038Z,24.98
2019-03-26T02:02:31.344Z,28.02
2019-03-26T02:05:02.520Z,14.67
2019-03-26T02:07:33.881Z,24.37
2019-03-26T02:10:05.468Z,24.82
2019-03-26T02:12:36.794Z,18.20
2019-03-26T02:15:11.452Z,33.88
2019-03-26T02:17:42.777Z,14.87
2019-03-26T02:20:14.083Z,34.30
2019-03-26T02:22:45.287Z,29.75
2019-03-26T02:25:16.617Z,25.32
2019-03-26T02:27:47.932Z,26.55
2019-03-26T02:30:19.240Z,29.20
2019-03-26T02:32:50.561Z,26.35
2019-03-26T02:35:21.928Z,23.60
2019-03-26T02:37:53.243Z,25.23
2019-03-26T02:40:24.495Z,48.60
2019-03-26T02:42:55.817Z,24.07
2019-03-26T02:45:27.189Z,23.85
2019-03-26T02:47:58.494Z,34.05
2019-03-26T02:50:29.747Z,24.80
2019-03-26T02:53:01.577Z,22.70
2019-03-26T02:55:32.804Z,27.67
2019-03-26T02:58:04.092Z,27.58
2019-03-26T03:00:35.500Z,25.12
2019-03-26T03:03:07.365Z,26.23
2019-03-26T03:05:38.564Z,32.70
2019-03-26T03:08:09.922Z,35.10
2019-03-26T03:10:41.272Z,28.55
2019-03-26T03:13:12.648Z,29.72
2019-03-26T03:15:44.073Z,27.07
2019-03-26T03:18:15.391Z,30.68
2019-03-26T03:20:46.682Z,33.20
2019-03-26T03:23:18.131Z,30.68
2019-03-26T03:25:49.474Z,24.57
2019-03-26T03:28:20.764Z,24.72
2019-03-26T03:30:52.246Z,29.32
2019-03-26T03:33:23.644Z,23.65
2019-03-26T03:35:54.983Z,20.35
2019-03-26T03:38:26.404Z,20.55
2019-03-26T03:40:57.783Z,36.20
2019-03-26T03:43:29.169Z,26.90
2019-03-26T03:46:00.741Z,26.87
2019-03-26T03:48:33.349Z,26.90
2019-03-26T03:51:07.914Z,18.12
2019-03-26T03:53:39.264Z,30.55
2019-03-26T03:56:13.644Z,27.80
2019-03-26T03:58:48.792Z,20.50
2019-03-26T04:01:20.158Z,19.40
2019-03-26T04:03:51.584Z,24.80
2019-03-26T04:06:22.880Z,25.65
2019-03-26T04:08:54.251Z,26.02
2019-03-26T04:11:25.630Z,30.88
2019-03-26T04:13:56.958Z,22.30
2019-03-26T04:16:28.379Z,24.50
2019-03-26T04:18:59.753Z,22.02
2019-03-26T04:21:31.124Z,22.40
2019-03-26T04:24:02.429Z,24.95
2019-03-26T04:26:33.847Z,20.17
2019-03-26T04:29:05.198Z,20.45
2019-03-26T04:31:36.751Z,27.15
2019-03-26T04:34:08.107Z,19.85
2019-03-26T04:36:58.407Z,14.43
2019-03-26T04:39:30.989Z,11.43
2019-03-26T04:42:21.260Z,26.20
2019-03-26T04:44:52.635Z,20.52
2019-03-26T04:47:26.858Z,16.12
2019-03-26T04:49:58.403Z,19.12
2019-03-26T04:52:29.827Z,14.60
2019-03-26T04:55:01.295Z,15.90
2019-03-26T04:57:32.642Z,16.90
2019-03-26T05:00:04.723Z,12.87
2019-03-26T05:02:36.104Z,12.18
2019-03-26T05:05:07.585Z,16.05
2019-03-26T05:07:39.020Z,17.30
2019-03-26T05:10:10.657Z,17.65
2019-03-26T05:12:41.931Z,16.93
2019-03-26T05:15:13.648Z,16.02
2019-03-26T05:17:45.074Z,10.93
2019-03-26T05:20:16.504Z,12.73
2019-03-26T05:22:47.790Z,10.48
2019-03-26T05:25:19.187Z,8.40
2019-03-26T05:27:50.513Z,10.40
2019-03-26T05:30:21.832Z,12.53
2019-03-26T05:32:53.208Z,10.37
2019-03-26T05:35:24.476Z,9.95
2019-03-26T05:37:55.776Z,11.65
2019-03-26T05:40:27.064Z,14.98
2019-03-26T05:42:58.340Z,9.48
2019-03-26T05:45:29.739Z,13.83
2019-03-26T05:48:01.219Z,7.75
2019-03-26T05:50:32.554Z,13.95
2019-03-26T05:53:03.879Z,13.88
2019-03-26T05:55:35.164Z,11.73
2019-03-26T05:58:06.498Z,16.90
2019-03-26T06:00:37.801Z,9.03
2019-03-26T06:03:09.085Z,16.12
2019-03-26T06:05:40.351Z,15.50
2019-03-26T06:08:11.652Z,20.92
2019-03-26T06:10:42.876Z,12.18
2019-03-26T06:13:14.137Z,9.28
2019-03-26T06:15:45.682Z,10.60
2019-03-26T06:18:17.036Z,7.00
2019-03-26T06:20:48.442Z,18.85
2019-03-26T06:23:20.122Z,11.40
2019-03-26T06:25:51.446Z,13.20
2019-03-26T06:28:22.757Z,10.73
2019-03-26T06:30:54.238Z,12.88
2019-03-26T06:33:25.547Z,13.48
2019-03-26T06:35:56.832Z,12.53
2019-03-26T06:38:28.322Z,17.60
2019-03-26T06:40:59.579Z,11.25
2019-03-26T06:43:31.015Z,10.20
2019-03-26T06:46:02.474Z,12.68
2019-03-26T06:48:35.148Z,12.00
2019-03-26T06:51:06.744Z,13.72
2019-03-26T06:53:41.095Z,17.45
2019-03-26T06:56:12.394Z,13.70
2019-03-26T06:58:43.866Z,10.78
2019-03-26T07:01:15.224Z,13.68
2019-03-26T07:03:46.580Z,13.75
2019-03-26T07:06:17.980Z,17.87
2019-03-26T07:08:49.350Z,13.78
2019-03-26T07:11:24.957Z,16.20
2019-03-26T07:13:56.262Z,22.25
2019-03-26T07:16:27.625Z,17.07
2019-03-26T07:18:58.897Z,12.50
2019-03-26T07:21:30.290Z,20.62
2019-03-26T07:24:01.697Z,12.28
2019-03-26T07:26:33.069Z,16.50
2019-03-26T07:29:04.451Z,15.10
2019-03-26T07:31:35.737Z,13.80
2019-03-26T07:34:07.333Z,15.98
2019-03-26T07:36:38.848Z,13.13
2019-03-26T07:39:10.237Z,15.40
2019-03-26T07:41:41.617Z,24.45
2019-03-26T07:44:13.055Z,14.98
2019-03-26T07:46:44.388Z,19.20
2019-03-26T07:49:15.722Z,15.70
2019-03-26T07:51:47.119Z,13.88
2019-03-26T07:54:18.352Z,10.98
2019-03-26T07:56:49.768Z,11.08
2019-03-26T07:59:21.204Z,16.60
2019-03-26T08:01:52.582Z,19.60
2019-03-26T08:04:23.970Z,19.00
2019-03-26T08:06:55.335Z,15.38
2019-03-26T08:09:26.930Z,14.65
2019-03-26T08:11:58.386Z,12.93
2019-03-26T08:14:29.764Z,22.13
2019-03-26T08:17:01.072Z,19.23
2019-03-26T08:19:32.444Z,13.40
2019-03-26T08:22:03.919Z,18.42
2019-03-26T08:24:35.191Z,18.70
2019-03-26T08:27:09.322Z,10.05
2019-03-26T08:29:40.708Z,8.75
2019-03-26T08:32:12.143Z,10.03
2019-03-26T08:34:46.595Z,12.00
2019-03-26T08:37:16.766Z,18.90
2019-03-26T08:39:48.096Z,10.78
2019-03-26T08:42:19.432Z,10.15
2019-03-26T08:44:50.924Z,13.43
2019-03-26T08:47:22.289Z,8.85
2019-03-26T08:49:53.664Z,12.07
2019-03-26T08:52:25.084Z,14.03
2019-03-26T08:54:56.438Z,10.63
2019-03-26T08:57:27.865Z,17.30
2019-03-26T08:59:59.251Z,6.70
2019-03-26T09:02:30.529Z,8.63
2019-03-26T09:05:01.905Z,6.03
2019-03-26T09:07:33.179Z,10.40
2019-03-26T09:10:05.016Z,10.15
2019-03-26T09:12:39.374Z,10.50
2019-03-26T09:15:14.587Z,8.05
2019-03-26T09:17:46.190Z,7.83
2019-03-26T09:20:17.825Z,8.43
2019-03-26T09:22:49.073Z,17.65
2019-03-26T09:25:20.286Z,6.70
2019-03-26T09:27:52.543Z,10.03
2019-03-26T09:30:23.921Z,8.40
2019-03-26T09:32:55.249Z,17.15
2019-03-26T09:35:26.563Z,13.93
2019-03-26T09:37:57.873Z,8.38
2019-03-26T09:40:29.135Z,16.37
2019-03-26T09:43:00.523Z,5.83
2019-03-26T09:45:31.798Z,9.28
2019-03-26T09:48:03.079Z,8.40
2019-03-26T09:50:36.666Z,12.37
2019-03-26T09:53:07.994Z,9.15
2019-03-26T09:55:39.302Z,6.80
2019-03-26T09:58:10.624Z,8.60
2019-03-26T10:00:42.102Z,9.10
2019-03-26T10:03:13.452Z,5.55
2019-03-26T10:05:47.821Z,13.75
2019-03-26T10:08:19.157Z,9.60
2019-03-26T10:10:50.465Z,8.98
2019-03-26T10:13:21.833Z,8.83
2019-03-26T10:15:53.155Z,12.13
2019-03-26T10:18:24.473Z,5.67
2019-03-26T10:20:55.799Z,8.48
2019-03-26T10:23:27.132Z,7.90
2019-03-26T10:25:58.475Z,8.10
2019-03-26T10:28:29.869Z,7.87
2019-03-26T10:31:01.218Z,11.57
2019-03-26T10:33:32.584Z,7.12
2019-03-26T10:36:03.935Z,9.75
2019-03-26T10:38:35.418Z,6.30
2019-03-26T10:41:06.724Z,8.45
2019-03-26T10:43:38.015Z,3.93
2019-03-26T10:46:09.321Z,9.00
2019-03-26T10:48:40.623Z,8.10
2019-03-26T10:51:11.990Z,8.03
2019-03-26T10:53:43.305Z,12.53
2019-03-26T10:56:14.709Z,9.45
2019-03-26T10:58:46.149Z,5.42
2019-03-26T11:01:17.423Z,4.43
2019-03-26T11:03:48.751Z,3.35
2019-03-26T11:06:20.099Z,9.73
2019-03-26T11:08:51.318Z,10.38
2019-03-26T11:11:22.668Z,5.15
2019-03-26T11:13:54.066Z,4.85
2019-03-26T11:16:25.459Z,6.75
2019-03-26T11:18:56.764Z,16.07
2019-03-26T11:21:28.078Z,9.97
2019-03-26T11:23:59.411Z,7.28
2019-03-26T11:26:30.743Z,6.85
2019-03-26T11:29:02.130Z,6.00
2019-03-26T11:31:33.403Z,3.47
2019-03-26T11:34:04.805Z,6.05
2019-03-26T11:36:36.283Z,4.40
2019-03-26T11:39:09.179Z,7.10
2019-03-26T11:41:40.488Z,9.28
2019-03-26T11:44:11.840Z,5.23
2019-03-26T11:46:43.133Z,2.52
2019-03-26T11:49:14.434Z,4.30
2019-03-26T11:51:46.449Z,5.50
2019-03-26T11:54:17.865Z,4.75
2019-03-26T11:56:49.227Z,4.58
2019-03-26T11:59:20.566Z,4.90
2019-03-26T12:01:52.568Z,4.62
2019-03-26T12:04:24.094Z,4.78
2019-03-26T12:06:55.431Z,5.10
2019-03-26T12:09:26.707Z,5.53
2019-03-26T12:11:57.962Z,6.47
2019-03-26T12:14:29.230Z,9.48
2019-03-26T12:17:00.541Z,5.00
2019-03-26T12:19:31.782Z,5.62
2019-03-26T12:22:03.082Z,3.30
2019-03-26T12:24:34.461Z,3.80
2019-03-26T12:27:05.805Z,8.07
2019-03-26T12:29:37.024Z,8.15
2019-03-26T12:32:08.496Z,3.45
2019-03-26T12:34:39.898Z,7.85
2019-03-26T12:37:11.226Z,3.72
2019-03-26T12:39:44.208Z,2.00
2019-03-26T12:42:15.803Z,7.70
2019-03-26T12:44:47.104Z,6.70
2019-03-26T12:47:18.450Z,3.67
2019-03-26T12:49:49.737Z,5.75
2019-03-26T12:52:21.000Z,3.83
2019-03-26T12:54:52.228Z,3.33
2019-03-26T12:57:23.556Z,2.60
2019-03-26T12:59:54.851Z,4.47
2019-03-26T13:02:26.149Z,7.87
2019-03-26T13:04:57.424Z,7.10
2019-03-26T13:07:28.652Z,7.12
2019-03-26T13:10:12.631Z,4.95
2019-03-26T13:12:32.911Z,6.05
2019-03-26T13:15:04.222Z,6.78
2019-03-26T13:17:35.514Z,4.80
2019-03-26T13:20:07.150Z,4.10
2019-03-26T13:22:38.498Z,3.42
2019-03-26T13:25:11.215Z,3.20
2019-03-26T13:27:42.474Z,4.65
2019-03-26T13:30:14.463Z,8.25
2019-03-26T13:32:45.791Z,6.95
2019-03-26T13:35:17.095Z,9.37
2019-03-26T13:37:48.395Z,3.40
2019-03-26T13:40:27.061Z,7.90
2019-03-26T13:42:53.770Z,4.17
2019-03-26T13:45:25.102Z,6.12
2019-03-26T13:47:56.359Z,8.83
2019-03-26T13:50:27.658Z,6.33
2019-03-26T13:52:58.909Z,6.78
2019-03-26T13:55:30.219Z,5.70
2019-03-26T13:58:01.535Z,5.50
2019-03-26T14:00:40.912Z,4.45
2019-03-26T14:03:12.279Z,8.33
2019-03-26T14:05:43.580Z,5.20
2019-03-26T14:08:14.892Z,6.65
2019-03-26T14:10:46.251Z,6.83
2019-03-26T14:13:17.584Z,5.53
2019-03-26T14:15:48.874Z,7.70
2019-03-26T14:18:20.172Z,7.30
2019-03-26T14:20:51.464Z,7.72
2019-03-26T14:23:22.846Z,5.55
2019-03-26T14:25:54.153Z,10.82
2019-03-26T14:28:25.396Z,6.33
2019-03-26T14:30:56.795Z,3.77
2019-03-26T14:33:28.019Z,7.87
2019-03-26T14:35:59.345Z,5.30
2019-03-26T14:38:30.750Z,3.10
2019-03-26T14:41:02.005Z,6.28
2019-03-26T14:43:33.420Z,9.50
2019-03-26T14:46:04.846Z,7.15
2019-03-26T14:48:36.155Z,7.05
2019-03-26T14:51:07.556Z,7.17
2019-03-26T14:53:38.904Z,11.30
2019-03-26T14:56:10.183Z,11.40
2019-03-26T14:58:41.407Z,9.95
2019-03-26T15:01:12.756Z,4.90
2019-03-26T15:03:44.128Z,8.35
2019-03-26T15:06:15.508Z,4.20
2019-03-26T15:08:46.890Z,8.35
2019-03-26T15:11:18.224Z,7.90
2019-03-26T15:13:49.757Z,3.72
2019-03-26T15:16:21.085Z,11.48
2019-03-26T15:18:52.407Z,8.30
2019-03-26T15:21:23.706Z,10.03
2019-03-26T15:23:54.990Z,4.85
2019-03-26T15:26:26.297Z,7.83
2019-03-26T15:28:57.591Z,5.00
2019-03-26T15:31:28.947Z,3.08
2019-03-26T15:34:00.376Z,3.47
2019-03-26T15:36:31.710Z,3.40
2019-03-26T15:39:04.934Z,2.50
2019-03-26T15:41:36.243Z,8.45
2019-03-26T15:44:07.502Z,7.45
2019-03-26T15:46:38.758Z,9.90
2019-03-26T15:49:10.169Z,3.55
2019-03-26T15:51:41.537Z,1.05
2019-03-26T15:54:12.899Z,2.00
2019-03-26T15:56:44.179Z,0.72
2019-03-26T15:59:15.531Z,1.63
2019-03-26T16:01:46.890Z,1.20
2019-03-26T16:04:18.182Z,1.62
2019-03-26T16:06:49.625Z,3.10
2019-03-26T16:09:21.279Z,2.33
2019-03-26T16:11:52.503Z,0.60
2019-03-26T16:14:23.876Z,3.10
2019-03-26T16:16:55.188Z,1.60
2019-03-26T16:19:32.111Z,0.70
2019-03-26T16:21:59.440Z,0.50
2019-03-26T16:24:30.756Z,3.05
2019-03-26T16:27:02.092Z,1.60
2019-03-26T16:29:33.354Z,2.70
2019-03-26T16:32:04.694Z,1.00
2019-03-26T16:34:36.010Z,0.80
2019-03-26T16:37:07.447Z,1.20
2019-03-26T16:39:38.771Z,1.70
2019-03-26T16:42:10.141Z,1.40
2019-03-26T16:44:41.388Z,0.70
2019-03-26T16:47:12.651Z,2.15
2019-03-26T16:49:43.945Z,3.52
2019-03-26T16:52:15.251Z,0.90
2019-03-26T16:54:46.594Z,1.98
2019-03-26T16:57:18.034Z,3.00
2019-03-26T16:59:49.322Z,2.50
2019-03-26T17:02:20.529Z,6.20
2019-03-26T17:04:51.866Z,3.08
2019-03-26T17:07:23.205Z,5.10
2019-03-26T17:09:54.485Z,1.60
2019-03-26T17:12:25.779Z,2.85
2019-03-26T17:14:57.070Z,6.03
2019-03-26T17:17:28.394Z,3.75
2019-03-26T17:19:59.736Z,2.30
2019-03-26T17:22:31.024Z,4.20
2019-03-26T17:25:02.269Z,3.98
2019-03-26T17:27:33.596Z,2.02
2019-03-26T17:30:05.036Z,1.93
2019-03-26T17:32:36.398Z,2.30
2019-03-26T17:35:08.012Z,2.10
2019-03-26T17:37:39.324Z,1.75
2019-03-26T17:40:10.744Z,4.37
2019-03-26T17:42:42.020Z,5.23
2019-03-26T17:45:13.592Z,3.70
2019-03-26T17:47:44.959Z,2.80
2019-03-26T17:50:16.308Z,2.50
2019-03-26T17:52:47.634Z,3.37
2019-03-26T17:55:18.853Z,1.45
2019-03-26T17:57:50.168Z,1.70
2019-03-26T18:00:36.259Z,3.10
2019-03-26T18:03:07.645Z,1.85
2019-03-26T18:05:38.948Z,3.40
2019-03-26T18:08:10.317Z,2.20
2019-03-26T18:10:41.674Z,3.55
2019-03-26T18:13:12.997Z,1.92
2019-03-26T18:15:44.328Z,1.17
2019-03-26T18:18:15.637Z,1.80
2019-03-26T18:20:46.980Z,1.17
2019-03-26T18:23:18.239Z,1.12
2019-03-26T18:25:49.598Z,4.40
2019-03-26T18:28:20.977Z,2.47
2019-03-26T18:30:52.337Z,3.27
2019-03-26T18:33:23.674Z,4.55
2019-03-26T18:35:55.012Z,1.80
2019-03-26T18:38:26.349Z,1.60
2019-03-26T18:40:57.637Z,3.60
2019-03-26T18:43:28.970Z,3.20
2019-03-26T18:46:00.299Z,1.57
2019-03-26T18:48:31.621Z,3.95
2019-03-26T18:51:02.955Z,4.62
2019-03-26T18:53:34.297Z,6.15
2019-03-26T18:56:05.693Z,6.28
2019-03-26T18:58:37.441Z,7.70
2019-03-26T19:01:08.818Z,4.40
2019-03-26T19:03:40.171Z,9.18
2019-03-26T19:06:11.510Z,4.55
2019-03-26T19:08:42.945Z,12.00
2019-03-26T19:11:14.358Z,8.60
2019-03-26T19:13:45.949Z,6.03
2019-03-26T19:16:17.326Z,11.68
2019-03-26T19:18:48.810Z,8.90
2019-03-26T19:21:20.113Z,7.90
2019-03-26T19:24:03.508Z,13.32
2019-03-26T19:26:24.543Z,9.78
2019-03-26T19:28:55.901Z,19.55
2019-03-26T19:31:27.363Z,10.00
2019-03-26T19:33:58.659Z,26.75
2019-03-26T19:36:29.902Z,18.48
2019-03-26T19:39:01.078Z,13.93
2019-03-26T19:41:32.396Z,15.30
2019-03-26T19:44:03.809Z,18.87
2019-03-26T19:46:37.178Z,13.62
2019-03-26T19:49:08.213Z,26.37
2019-03-26T19:51:39.524Z,14.87
2019-03-26T19:54:10.901Z,24.20
2019-03-26T19:56:42.232Z,14.63
2019-03-26T19:59:13.596Z,21.05
2019-03-26T20:01:45.002Z,21.00
2019-03-26T20:04:16.337Z,20.92
2019-03-26T20:06:47.594Z,27.35
2019-03-26T20:09:18.979Z,22.52
2019-03-26T20:11:50.340Z,43.38
2019-03-26T20:14:21.619Z,31.10
2019-03-26T20:16:52.998Z,32.45
2019-03-26T20:19:24.309Z,33.47
2019-03-26T20:21:55.551Z,26.30
2019-03-26T20:24:26.780Z,20.48
2019-03-26T20:26:58.191Z,37.55
2019-03-26T20:29:29.519Z,33.17
2019-03-26T20:32:00.874Z,22.15
2019-03-26T20:34:32.294Z,35.78
2019-03-26T20:37:03.540Z,30.45
2019-03-26T20:39:34.889Z,33.38
2019-03-26T20:42:06.262Z,31.12
2019-03-26T20:44:37.576Z,33.38
2019-03-26T20:47:08.974Z,31.30
2019-03-26T20:49:40.310Z,30.12
2019-03-26T20:52:11.663Z,40.88
2019-03-26T20:54:42.951Z,25.20
2019-03-26T20:57:14.584Z,39.65
2019-03-26T20:59:45.793Z,29.87
2019-03-26T21:02:17.069Z,30.40
2019-03-26T21:04:48.510Z,32.80
2019-03-26T21:07:19.966Z,35.08
2019-03-26T21:09:51.359Z,37.77
2019-03-26T21:12:22.683Z,27.73
2019-03-26T21:14:53.922Z,33.78
2019-03-26T21:17:25.309Z,30.75
2019-03-26T21:19:56.593Z,25.08
2019-03-26T21:22:27.863Z,25.92
2019-03-26T21:24:59.144Z,31.20
2019-03-26T21:27:30.471Z,29.67
2019-03-26T21:30:10.657Z,35.97
2019-03-26T21:32:34.929Z,33.70
2019-03-26T21:35:06.959Z,34.70
2019-03-26T21:37:38.640Z,45.63
2019-03-26T21:40:10.848Z,31.33
2019-03-26T21:42:42.131Z,29.87
2019-03-26T21:45:15.058Z,36.68
2019-03-26T21:47:46.373Z,35.10
2019-03-26T21:50:17.655Z,28.42
2019-03-26T21:52:50.157Z,30.70
2019-03-26T21:55:21.480Z,28.98
2019-03-26T21:57:52.738Z,32.42
2019-03-26T22:00:24.067Z,36.88
2019-03-26T22:02:55.474Z,35.63
2019-03-26T22:05:27.056Z,35.48
2019-03-26T22:08:03.925Z,22.98
2019-03-26T22:10:35.482Z,37.55
2019-03-26T22:13:06.991Z,37.90
2019-03-26T22:15:39.967Z,31.55
2019-03-26T22:18:11.367Z,17.98
2019-03-26T22:20:42.802Z,38.67
2019-03-26T22:23:14.405Z,36.60
2019-03-26T22:25:45.776Z,28.70
2019-03-26T22:28:17.216Z,24.80
2019-03-26T22:30:48.615Z,25.68
2019-03-26T22:33:19.963Z,28.45
2019-03-26T22:35:51.285Z,25.63
2019-03-26T22:38:22.646Z,18.95
2019-03-26T22:40:53.954Z,24.40
2019-03-26T22:43:25.252Z,26.73
2019-03-26T22:45:56.618Z,30.50
2019-03-26T22:48:27.930Z,22.80
2019-03-26T22:50:59.264Z,23.95
2019-03-26T22:53:30.596Z,32.60
2019-03-26T22:56:01.921Z,23.65
2019-03-26T22:58:33.251Z,23.73
2019-03-26T23:01:04.911Z,27.15
2019-03-26T23:03:36.265Z,16.67
2019-03-26T23:06:07.688Z,23.40
2019-03-26T23:08:39.073Z,26.57
2019-03-26T23:11:10.412Z,18.20
2019-03-26T23:13:41.782Z,25.88
2019-03-26T23:16:14.234Z,19.30
2019-03-26T23:18:45.552Z,22.93
2019-03-26T23:21:19.755Z,23.65
2019-03-26T23:23:50.027Z,25.27
2019-03-26T23:26:21.338Z,23.60
2019-03-26T23:28:52.703Z,12.60
2019-03-26T23:31:24.077Z,19.32
2019-03-26T23:33:55.434Z,19.77
2019-03-26T23:36:26.757Z,18.90
2019-03-26T23:38:58.094Z,14.43
2019-03-26T23:41:29.472Z,26.33
2019-03-26T23:44:00.813Z,18.92
2019-03-26T23:46:32.152Z,16.25
2019-03-26T23:49:03.390Z,21.33
2019-03-26T23:51:34.710Z,10.53
2019-03-26T23:54:06.058Z,13.48
2019-03-26T23:56:37.349Z,14.45
2019-03-26T23:59:08.680Z,17.62
